Time;durP1;ratioP1;P1;durP2;ratioP2;P2;SDS_P1;SDS_P2;PMS_P1;PMS_P2;Temp;Humidity;BMP_temperature;BMP_pressure;BME280_temperature;BME280_humidity;BME280_pressure;Samples;Min_cycle;Max_cycle;Signal;HPM_P1;HPM_P2
2022/08/02 00:33:54;;;;;;;9.23;4.47;;;18.60;99.90;;;;;;6058536;23;20019;-87
2022/08/02 00:36:21;;;;;;;8.23;4.45;;;18.50;99.90;;;;;;6058415;23;20043;-87
2022/08/02 00:38:49;;;;;;;9.48;3.97;;;18.50;99.90;;;;;;6058323;23;20442;-87
2022/08/02 00:41:18;;;;;;;10.32;4.68;;;18.50;99.90;;;;;;6057014;23;20023;-87
2022/08/02 00:43:46;;;;;;;12.02;4.85;;;18.50;99.90;;;;;;6058131;23;20512;-87
2022/08/02 00:46:13;;;;;;;9.65;4.10;;;18.50;99.90;;;;;;6058433;23;20019;-87
2022/08/02 00:48:40;;;;;;;9.75;4.40;;;18.50;99.90;;;;;;6058307;23;20494;-87
2022/08/02 00:51:08;;;;;;;10.32;4.72;;;18.50;99.90;;;;;;6058557;23;20018;-88
2022/08/02 00:53:35;;;;;;;9.98;4.57;;;18.50;99.90;;;;;;6057297;23;20027;-87
2022/08/02 00:56:03;;;;;;;11.18;4.97;;;18.50;99.90;;;;;;6058430;23;20030;-87
2022/08/02 00:58:30;;;;;;;7.32;4.10;;;18.40;99.90;;;;;;6057791;23;20018;-87
2022/08/02 01:00:59;;;;;;;12.10;4.28;;;18.40;99.90;;;;;;6057961;23;20073;-87
2022/08/02 01:03:26;;;;;;;7.82;4.18;;;18.40;99.90;;;;;;6058716;23;20345;-87
2022/08/02 01:05:53;;;;;;;9.75;4.30;;;18.40;99.90;;;;;;6058308;23;20414;-87
2022/08/02 01:08:22;;;;;;;10.88;4.25;;;18.40;99.90;;;;;;6058388;23;20034;-87
2022/08/02 01:10:49;;;;;;;9.07;4.30;;;18.40;99.90;;;;;;6057909;23;20054;-88
2022/08/02 01:13:16;;;;;;;11.27;4.18;;;18.40;99.90;;;;;;6056607;23;20480;-88
2022/08/02 01:15:48;;;;;;;10.30;4.28;;;18.40;99.90;;;;;;6056426;23;20089;-87
2022/08/02 01:18:21;;;;;;;9.27;4.15;;;18.30;99.90;;;;;;6058173;23;20103;-87
2022/08/02 01:21:29;;;;;;;9.82;4.28;;;18.30;99.90;;;;;;6056551;23;20045;-86
2022/08/02 01:24:13;;;;;;;12.10;4.60;;;18.30;99.90;;;;;;6056758;23;20053;-88
2022/08/02 01:26:43;;;;;;;10.70;4.00;;;18.30;99.90;;;;;;6057961;23;20422;-87
2022/08/02 01:29:18;;;;;;;9.23;4.30;;;18.30;99.90;;;;;;6057562;23;20666;-87
2022/08/02 01:31:49;;;;;;;10.05;4.65;;;18.30;99.90;;;;;;6059584;23;20046;-87
2022/08/02 01:34:19;;;;;;;7.70;4.20;;;18.30;99.90;;;;;;6058899;23;20069;-87
2022/08/02 01:36:49;;;;;;;8.60;3.95;;;18.30;99.90;;;;;;6059455;23;20110;-87
2022/08/02 01:39:20;;;;;;;8.98;4.00;;;18.30;99.90;;;;;;6058690;23;20085;-87
2022/08/02 01:41:48;;;;;;;7.85;4.20;;;18.30;99.90;;;;;;6057934;23;20030;-87
2022/08/02 01:44:17;;;;;;;12.63;4.35;;;18.30;99.90;;;;;;6057897;23;20023;-87
2022/08/02 01:46:45;;;;;;;8.93;4.03;;;18.20;99.90;;;;;;6058898;23;20445;-87
2022/08/02 01:49:16;;;;;;;8.57;4.10;;;18.20;99.90;;;;;;6058573;23;20082;-87
2022/08/02 01:54:31;;;;;;;6.53;3.55;;;18.20;99.90;;;;;;6059356;23;19917;-87
2022/08/02 01:56:58;;;;;;;10.07;3.75;;;18.20;99.90;;;;;;6059322;23;20022;-87
2022/08/02 01:59:28;;;;;;;7.93;4.10;;;18.20;99.90;;;;;;6059034;23;20015;-87
2022/08/02 02:01:56;;;;;;;9.30;4.60;;;18.20;99.90;;;;;;6059351;23;20450;-87
2022/08/02 02:04:24;;;;;;;7.05;3.63;;;18.20;99.90;;;;;;6059215;23;20458;-88
2022/08/02 02:06:51;;;;;;;7.07;3.83;;;18.10;99.90;;;;;;6057303;23;20026;-87
2022/08/02 02:09:20;;;;;;;10.55;4.00;;;18.20;99.90;;;;;;6057099;23;20470;-87
2022/08/02 02:11:47;;;;;;;10.90;4.20;;;18.10;99.90;;;;;;6057693;23;20118;-86
2022/08/02 02:14:15;;;;;;;8.32;4.05;;;18.10;99.90;;;;;;6058777;23;20018;-87
2022/08/02 02:16:45;;;;;;;8.57;4.13;;;18.10;99.90;;;;;;6059095;23;20097;-87
2022/08/02 02:19:15;;;;;;;8.85;4.00;;;18.10;99.90;;;;;;6058683;23;20106;-87
2022/08/02 02:21:42;;;;;;;8.98;3.85;;;18.00;99.90;;;;;;6059370;23;20033;-87
2022/08/02 02:24:09;;;;;;;12.55;3.90;;;18.00;99.90;;;;;;6058706;23;20019;-87
2022/08/02 02:26:37;;;;;;;10.13;3.95;;;18.00;99.90;;;;;;6057579;23;20763;-87
2022/08/02 02:29:04;;;;;;;7.47;3.75;;;18.00;99.90;;;;;;6058791;23;20085;-87
2022/08/02 02:31:35;;;;;;;9.63;4.00;;;18.00;99.90;;;;;;6057672;23;20098;-87
2022/08/02 02:34:05;;;;;;;6.90;3.72;;;17.90;99.90;;;;;;6057668;23;20125;-87
2022/08/02 02:36:33;;;;;;;9.63;3.75;;;17.90;99.90;;;;;;6056999;23;20027;-87
2022/08/02 02:39:04;;;;;;;7.47;3.33;;;17.90;99.90;;;;;;6058796;23;20413;-87
2022/08/02 02:41:31;;;;;;;8.47;4.30;;;17.90;99.90;;;;;;6056804;23;20051;-87
2022/08/02 02:44:01;;;;;;;9.52;4.28;;;17.90;99.90;;;;;;6057378;23;20366;-87
2022/08/02 02:46:29;;;;;;;6.23;3.60;;;17.80;99.90;;;;;;6057423;23;20023;-87
2022/08/02 02:48:56;;;;;;;10.80;4.47;;;17.80;99.90;;;;;;6057051;23;20023;-86
2022/08/02 02:51:25;;;;;;;10.05;3.70;;;17.80;99.90;;;;;;6059292;23;20076;-87
2022/08/02 02:53:53;;;;;;;7.95;3.55;;;17.80;99.90;;;;;;6057256;23;20049;-86
2022/08/02 02:56:20;;;;;;;5.70;3.42;;;17.80;99.90;;;;;;6058742;23;20085;-87
2022/08/02 02:58:48;;;;;;;7.25;3.55;;;17.80;99.90;;;;;;6058305;23;20051;-87
2022/08/02 03:01:28;;;;;;;8.88;3.80;;;17.80;99.90;;;;;;6058964;23;20022;-87
2022/08/02 03:03:55;;;;;;;7.75;3.92;;;17.70;99.90;;;;;;6059093;23;20446;-87
2022/08/02 03:06:35;;;;;;;7.72;3.75;;;17.70;99.90;;;;;;6057305;23;20026;-87
2022/08/02 03:09:03;;;;;;;10.07;3.40;;;17.70;99.90;;;;;;6058156;23;20400;-87
2022/08/02 03:11:31;;;;;;;5.45;3.70;;;17.70;99.90;;;;;;6055192;23;20019;-87
2022/08/02 03:13:59;;;;;;;8.30;3.95;;;17.70;99.90;;;;;;6057297;23;20015;-86
2022/08/02 03:16:27;;;;;;;9.43;3.50;;;17.70;99.90;;;;;;6053194;23;20105;-86
2022/08/02 03:18:54;;;;;;;9.70;3.70;;;17.70;99.90;;;;;;6058199;23;20027;-87
2022/08/02 03:21:22;;;;;;;6.80;3.60;;;17.60;99.90;;;;;;6056753;23;20023;-87
2022/08/02 03:23:50;;;;;;;8.73;3.95;;;17.60;99.90;;;;;;6059111;23;20019;-87
2022/08/02 03:26:17;;;;;;;10.10;3.83;;;17.60;99.90;;;;;;6057093;23;20485;-87
2022/08/02 03:28:44;;;;;;;6.78;3.72;;;17.60;99.90;;;;;;6058839;23;20061;-87
2022/08/02 03:31:12;;;;;;;10.63;3.58;;;17.60;99.90;;;;;;6057303;23;20027;-87
2022/08/02 03:33:39;;;;;;;5.53;3.42;;;17.60;99.90;;;;;;6056732;23;20018;-87
2022/08/02 03:36:10;;;;;;;8.30;3.65;;;17.60;99.90;;;;;;6058993;23;20050;-87
2022/08/02 03:38:37;;;;;;;8.43;3.55;;;17.60;99.90;;;;;;6058607;23;20113;-87
2022/08/02 03:41:07;;;;;;;9.30;3.90;;;17.50;99.90;;;;;;6058666;23;20046;-87
2022/08/02 03:43:35;;;;;;;7.97;3.60;;;17.50;99.90;;;;;;6057201;23;20097;-87
2022/08/02 03:46:03;;;;;;;6.97;3.70;;;17.50;99.90;;;;;;6058890;23;20069;-87
2022/08/02 03:48:31;;;;;;;8.40;3.63;;;17.50;99.90;;;;;;6057857;23;20076;-87
2022/08/02 03:50:58;;;;;;;8.13;3.53;;;17.50;99.90;;;;;;6057865;23;20025;-87
2022/08/02 03:53:25;;;;;;;6.90;3.72;;;17.50;99.90;;;;;;6058714;23;20045;-87
2022/08/02 03:55:53;;;;;;;7.60;3.55;;;17.50;99.90;;;;;;6058694;23;20073;-87
2022/08/02 03:58:23;;;;;;;6.70;3.13;;;17.50;99.90;;;;;;6058763;23;20101;-86
2022/08/02 04:00:52;;;;;;;7.18;3.20;;;17.40;99.90;;;;;;6056577;23;20105;-87
2022/08/02 04:03:19;;;;;;;7.28;3.50;;;17.40;99.90;;;;;;6057640;23;20077;-87
2022/08/02 04:05:46;;;;;;;7.00;3.70;;;17.40;99.90;;;;;;6057621;23;20045;-87
2022/08/02 04:08:13;;;;;;;6.20;3.40;;;17.40;99.90;;;;;;6058497;23;20026;-87
2022/08/02 04:13:27;;;;;;;8.77;3.88;;;17.40;99.90;;;;;;6058661;23;20651;-87
2022/08/02 04:15:57;;;;;;;7.78;3.70;;;17.40;99.90;;;;;;6058788;23;20050;-87
2022/08/02 04:18:30;;;;;;;6.15;3.67;;;17.40;99.90;;;;;;6056708;23;20497;-87
2022/08/02 04:20:59;;;;;;;7.38;3.88;;;17.40;99.90;;;;;;6058076;23;20045;-88
2022/08/02 04:23:27;;;;;;;5.72;3.22;;;17.40;99.90;;;;;;6056870;23;20529;-88
2022/08/02 04:25:54;;;;;;;5.68;3.60;;;17.40;99.90;;;;;;6057119;23;20027;-89
2022/08/02 04:28:21;;;;;;;7.50;3.63;;;17.40;99.90;;;;;;6058782;23;20477;-89
2022/08/02 04:30:51;;;;;;;6.28;3.63;;;17.40;99.90;;;;;;6056361;23;20031;-88
2022/08/02 04:33:18;;;;;;;7.10;3.40;;;17.50;99.90;;;;;;6057401;23;20030;-88
2022/08/02 04:35:46;;;;;;;13.05;3.75;;;17.50;99.90;;;;;;6058531;23;20069;-89
2022/08/02 04:38:14;;;;;;;9.93;3.75;;;17.50;99.90;;;;;;6057153;23;20030;-88
2022/08/02 04:40:47;;;;;;;10.05;3.60;;;17.50;99.90;;;;;;6057539;23;20023;-89
2022/08/02 04:43:14;;;;;;;7.60;3.65;;;17.50;99.90;;;;;;6056747;23;20030;-89
2022/08/02 04:45:41;;;;;;;7.45;3.42;;;17.60;99.90;;;;;;6056806;23;20602;-88
2022/08/02 04:48:09;;;;;;;10.05;3.58;;;17.60;99.90;;;;;;6057041;23;20331;-89
2022/08/02 04:50:36;;;;;;;8.90;4.03;;;17.60;99.90;;;;;;6055987;23;20027;-89
2022/08/02 04:53:04;;;;;;;7.63;3.67;;;17.70;99.90;;;;;;6056051;23;20026;-88
2022/08/02 04:55:31;;;;;;;7.13;3.67;;;17.70;99.90;;;;;;6057779;23;20446;-88
2022/08/02 04:57:58;;;;;;;10.85;4.13;;;17.70;99.90;;;;;;6058152;23;20022;-89
2022/08/02 05:00:26;;;;;;;11.02;4.75;;;17.80;99.90;;;;;;6057817;23;20026;-91
2022/08/02 05:02:54;;;;;;;11.05;4.40;;;17.80;99.90;;;;;;6056794;23;20019;-88
2022/08/02 05:05:23;;;;;;;7.30;3.83;;;17.80;99.90;;;;;;6057113;23;20019;-89
2022/08/02 05:07:50;;;;;;;7.90;4.30;;;17.80;99.90;;;;;;6058452;23;20402;-89
2022/08/02 05:10:17;;;;;;;9.77;4.80;;;17.90;99.90;;;;;;6057454;23;20019;-88
2022/08/02 05:25:14;;;;;;;12.05;5.15;;;18.00;99.90;;;;;;5978517;24;20567;-87
2022/08/02 05:27:42;;;;;;;11.40;5.03;;;18.10;99.90;;;;;;5970081;24;20024;-88
2022/08/02 05:30:12;;;;;;;13.95;5.53;;;18.10;99.90;;;;;;5949442;23;20079;31
2022/08/02 05:32:46;;;;;;;9.95;5.15;;;18.20;99.90;;;;;;6031346;23;20066;-83
2022/08/02 05:35:13;;;;;;;16.67;5.25;;;18.20;99.90;;;;;;6032039;23;20116;-83
2022/08/02 05:37:40;;;;;;;15.77;5.50;;;18.30;99.90;;;;;;6031701;23;20028;-83
2022/08/02 05:40:09;;;;;;;15.50;5.50;;;18.30;99.90;;;;;;6034035;23;20019;-83
2022/08/02 05:42:37;;;;;;;12.05;5.35;;;18.40;99.90;;;;;;6059038;23;20045;-84
2022/08/02 05:45:05;;;;;;;9.57;5.00;;;18.40;99.90;;;;;;6059777;23;20019;-84
2022/08/02 05:47:32;;;;;;;12.10;5.03;;;18.50;99.90;;;;;;6060062;23;20029;-84
2022/08/02 05:49:59;;;;;;;12.65;4.95;;;18.60;99.90;;;;;;6059157;23;20023;-85
2022/08/02 05:52:29;;;;;;;12.23;5.65;;;18.60;99.90;;;;;;6059954;23;20026;-84
2022/08/02 05:55:03;;;;;;;9.60;4.88;;;18.70;99.90;;;;;;6059569;23;20015;-84
2022/08/02 05:57:37;;;;;;;12.20;5.20;;;18.80;99.90;;;;;;6059016;23;20050;-84
2022/08/02 06:00:08;;;;;;;12.07;4.95;;;18.80;99.90;;;;;;6059160;23;20057;-84
2022/08/02 06:03:04;;;;;;;11.77;5.60;;;19.00;99.90;;;;;;6059798;23;20025;-84
2022/08/02 06:05:35;;;;;;;10.55;5.07;;;19.10;99.90;;;;;;6059578;23;20356;-84
2022/08/02 06:08:02;;;;;;;17.17;5.70;;;19.20;99.90;;;;;;6059811;23;20023;-84
2022/08/02 06:10:30;;;;;;;13.80;5.75;;;19.30;99.90;;;;;;6059561;23;20033;-84
2022/08/02 06:13:08;;;;;;;11.65;5.68;;;19.40;99.90;;;;;;6060956;23;20511;-84
2022/08/02 06:15:35;;;;;;;10.75;4.97;;;19.60;99.90;;;;;;6060564;23;20055;-84
2022/08/02 06:18:03;;;;;;;17.33;5.20;;;19.80;99.90;;;;;;6061012;23;20023;-84
2022/08/02 06:20:34;;;;;;;15.77;5.47;;;19.90;99.90;;;;;;6060961;23;20131;-84
2022/08/02 06:23:03;;;;;;;12.30;4.93;;;20.00;99.90;;;;;;6061668;23;20472;-84
2022/08/02 06:25:31;;;;;;;14.10;5.20;;;20.10;99.90;;;;;;6060626;23;20026;-84
2022/08/02 06:27:59;;;;;;;14.80;5.03;;;20.20;99.90;;;;;;6061318;23;20023;-84
2022/08/02 06:30:28;;;;;;;14.25;5.22;;;20.30;99.90;;;;;;6060608;23;20047;-84
2022/08/02 06:32:56;;;;;;;15.82;4.72;;;20.40;99.90;;;;;;6060729;23;20073;-84
2022/08/02 06:35:26;;;;;;;14.00;5.15;;;20.50;99.90;;;;;;6060693;23;20011;-84
2022/08/02 06:37:58;;;;;;;16.38;5.10;;;20.60;99.90;;;;;;6060863;23;20384;-84
2022/08/02 06:40:27;;;;;;;14.55;4.80;;;20.70;99.90;;;;;;6059472;23;20033;-84
2022/08/02 06:43:06;;;;;;;10.40;5.15;;;20.70;99.90;;;;;;6060689;23;20026;-84
2022/08/02 06:45:35;;;;;;;8.82;4.65;;;20.80;99.90;;;;;;6061060;23;20051;-84
2022/08/02 06:48:03;;;;;;;11.95;4.95;;;20.80;99.90;;;;;;6059833;23;20082;-84
2022/08/02 06:50:31;;;;;;;11.93;5.03;;;20.80;99.90;;;;;;6060430;23;20034;-84
2022/08/02 06:52:58;;;;;;;10.57;5.00;;;20.90;99.90;;;;;;6061386;23;20095;-83
2022/08/02 06:55:26;;;;;;;11.77;5.05;;;21.00;99.90;;;;;;6060268;23;20346;-81
2022/08/02 06:57:53;;;;;;;10.75;5.10;;;21.00;99.90;;;;;;6058893;23;20027;-82
2022/08/02 07:00:20;;;;;;;12.30;5.93;;;21.10;99.90;;;;;;6060466;23;20425;-82
2022/08/02 07:02:49;;;;;;;10.23;5.85;;;21.10;99.90;;;;;;6061075;23;20082;-83
2022/08/02 07:05:16;;;;;;;11.32;5.80;;;21.20;99.90;;;;;;6060043;23;20015;-83
2022/08/02 07:07:43;;;;;;;11.57;5.78;;;21.20;99.90;;;;;;6061048;23;20424;-82
2022/08/02 07:10:10;;;;;;;12.65;5.63;;;21.20;99.90;;;;;;6060138;23;20073;-83
2022/08/02 07:12:37;;;;;;;11.77;5.78;;;21.30;99.90;;;;;;6060907;23;20022;-83
2022/08/02 07:15:06;;;;;;;10.52;5.85;;;21.40;99.90;;;;;;6060697;23;20451;-84
2022/08/02 07:17:33;;;;;;;10.38;5.78;;;21.40;99.90;;;;;;6061177;23;20050;-83
2022/08/02 07:20:01;;;;;;;11.93;6.05;;;21.50;99.90;;;;;;6060070;23;20455;-83
2022/08/02 07:22:29;;;;;;;15.07;6.75;;;21.60;99.90;;;;;;6060577;23;20023;-84
2022/08/02 07:24:57;;;;;;;13.35;6.65;;;21.60;99.90;;;;;;6060698;23;20011;-84
2022/08/02 07:27:25;;;;;;;12.13;5.80;;;21.70;99.90;;;;;;6060278;23;20022;-84
2022/08/02 07:29:52;;;;;;;14.02;5.93;;;21.70;99.90;;;;;;6061064;23;20030;-84
2022/08/02 07:32:21;;;;;;;14.77;5.70;;;21.80;99.90;;;;;;6060960;23;20014;-84
2022/08/02 07:34:48;;;;;;;14.57;5.80;;;21.80;99.90;;;;;;6060809;23;20538;-83
2022/08/02 07:37:17;;;;;;;13.88;6.22;;;21.90;99.90;;;;;;6059966;23;20023;-83
2022/08/02 07:39:44;;;;;;;10.30;5.07;;;22.00;99.90;;;;;;6060642;23;20023;-83
2022/08/02 07:42:11;;;;;;;8.27;4.72;;;22.00;99.90;;;;;;6058814;23;20117;-83
2022/08/02 07:44:38;;;;;;;11.25;4.50;;;22.00;99.90;;;;;;6060985;23;20077;-84
2022/08/02 07:47:05;;;;;;;11.32;4.40;;;22.10;99.90;;;;;;6060558;23;20027;-84
2022/08/02 07:49:32;;;;;;;8.88;4.10;;;22.10;99.90;;;;;;6058780;23;20134;-84
2022/08/02 07:51:59;;;;;;;8.93;3.95;;;22.20;99.90;;;;;;6061072;23;20110;-84
2022/08/02 07:54:27;;;;;;;11.48;4.43;;;22.30;99.90;;;;;;6060873;23;20453;-84
2022/08/02 07:56:54;;;;;;;10.65;4.18;;;22.40;99.90;;;;;;6060280;23;20453;-83
2022/08/02 07:59:21;;;;;;;11.98;4.38;;;22.40;99.90;;;;;;6058538;23;20117;-83
2022/08/02 08:01:48;;;;;;;10.43;3.72;;;22.50;99.90;;;;;;6060952;23;20448;-84
2022/08/02 08:04:16;;;;;;;10.50;4.60;;;22.50;99.90;;;;;;6083642;23;20468;-84
2022/08/02 08:06:43;;;;;;;10.35;4.15;;;22.60;99.90;;;;;;6059735;23;20015;-84
2022/08/02 08:09:10;;;;;;;7.75;3.90;;;22.60;99.90;;;;;;6059824;23;20023;-84
2022/08/02 08:11:38;;;;;;;9.02;3.92;;;22.70;99.90;;;;;;6060430;23;20050;-84
2022/08/02 08:14:05;;;;;;;7.32;3.70;;;22.80;99.90;;;;;;6060675;23;20089;-84
2022/08/02 08:16:32;;;;;;;7.40;3.40;;;22.80;99.90;;;;;;6060927;23;20015;-84
2022/08/02 08:19:00;;;;;;;7.10;3.35;;;22.90;99.90;;;;;;6060590;23;20506;-84
2022/08/02 08:21:28;;;;;;;10.13;3.80;;;22.90;99.90;;;;;;6060540;23;20065;-84
2022/08/02 08:23:55;;;;;;;8.05;3.30;;;23.00;99.10;;;;;;6060591;23;20025;-84
2022/08/02 08:26:22;;;;;;;8.60;3.10;;;23.00;99.90;;;;;;6060678;23;20038;-84
2022/08/02 08:28:50;;;;;;;6.18;3.50;;;23.00;99.90;;;;;;6060859;23;20050;-84
2022/08/02 08:31:17;;;;;;;7.18;3.00;;;23.10;99.90;;;;;;6058596;23;20019;-84
2022/08/02 08:33:44;;;;;;;7.18;2.97;;;23.10;99.40;;;;;;6060434;23;20019;-84
2022/08/02 08:36:11;;;;;;;6.30;2.70;;;23.10;98.50;;;;;;6059856;23;20106;-84
2022/08/02 08:38:38;;;;;;;10.05;2.90;;;23.10;99.10;;;;;;6061251;23;20027;-84
2022/08/02 08:41:05;;;;;;;8.38;2.95;;;23.10;95.50;;;;;;6060446;23;20129;-84
2022/08/02 08:43:32;;;;;;;9.48;2.70;;;23.20;98.20;;;;;;6060471;23;20042;-84
2022/08/02 08:46:00;;;;;;;4.50;2.55;;;23.30;96.60;;;;;;6059278;23;20202;-85
2022/08/02 08:48:27;;;;;;;6.70;2.38;;;23.40;95.60;;;;;;6059886;23;20019;-84
2022/08/02 08:50:57;;;;;;;5.60;2.70;;;23.50;94.80;;;;;;6059575;23;20027;-83
2022/08/02 08:53:26;;;;;;;6.47;2.67;;;23.50;96.20;;;;;;6059740;23;20133;-84
2022/08/02 08:55:55;;;;;;;9.18;2.42;;;23.60;96.80;;;;;;6059965;23;20023;-84
2022/08/02 08:58:22;;;;;;;7.65;3.00;;;23.50;94.40;;;;;;6082654;23;20615;-84
2022/08/02 09:00:49;;;;;;;7.38;3.00;;;23.60;96.50;;;;;;6059142;23;20452;-86
2022/08/02 09:03:17;;;;;;;7.85;2.60;;;23.60;97.00;;;;;;6059753;23;20081;-86
2022/08/02 09:05:45;;;;;;;5.68;2.90;;;23.70;96.10;;;;;;6060132;23;20018;-83
2022/08/02 09:08:13;;;;;;;6.07;3.00;;;23.70;96.90;;;;;;6059091;23;20546;-83
2022/08/02 09:10:42;;;;;;;8.93;2.72;;;23.70;98.40;;;;;;6060136;23;20061;-83
2022/08/02 09:13:15;;;;;;;6.22;2.75;;;23.70;99.50;;;;;;6060087;23;20477;-83
2022/08/02 09:15:43;;;;;;;4.63;2.90;;;23.80;98.70;;;;;;6060277;23;20033;-83
2022/08/02 09:18:11;;;;;;;8.55;3.15;;;23.80;97.60;;;;;;6060315;23;20019;-83
2022/08/02 09:20:53;;;;;;;7.95;3.22;;;23.80;96.10;;;;;;6059854;23;20061;-83
2022/08/02 09:23:21;;;;;;;5.97;3.40;;;23.90;98.20;;;;;;6059781;23;20022;-83
2022/08/02 09:25:58;;;;;;;6.78;3.10;;;24.00;98.00;;;;;;6060147;23;20098;-83
2022/08/02 09:28:27;;;;;;;5.93;3.13;;;24.00;95.90;;;;;;6059098;23;20077;-83
2022/08/02 09:30:57;;;;;;;5.05;3.00;;;24.10;98.20;;;;;;6059227;23;20491;-83
2022/08/02 09:33:26;;;;;;;5.68;3.30;;;24.10;96.30;;;;;;6059897;23;20130;-82
2022/08/02 09:36:01;;;;;;;7.82;3.30;;;24.10;97.70;;;;;;6059453;23;20347;-83
2022/08/02 09:38:28;;;;;;;6.25;3.95;;;24.20;98.30;;;;;;6060383;23;20032;-82
2022/08/02 09:40:55;;;;;;;7.07;3.60;;;24.20;98.30;;;;;;6058811;23;20353;-83
2022/08/02 09:43:36;;;;;;;4.70;2.80;;;24.20;99.50;;;;;;6060294;23;20027;-83
2022/08/02 09:46:13;;;;;;;6.78;3.22;;;24.30;99.00;;;;;;6060650;23;20023;-85
2022/08/02 09:48:51;;;;;;;5.45;3.03;;;24.40;97.80;;;;;;6060963;23;20022;-88
2022/08/02 09:51:24;;;;;;;6.45;3.55;;;24.30;97.60;;;;;;6061210;23;20022;-88
2022/08/02 09:53:53;;;;;;;8.65;3.60;;;24.40;98.20;;;;;;6060007;23;20050;-85
2022/08/02 09:56:21;;;;;;;7.03;4.05;;;24.40;99.90;;;;;;6059842;23;20041;-85
2022/08/02 09:58:50;;;;;;;7.53;3.97;;;24.30;97.40;;;;;;6061108;23;20019;-85
2022/08/02 10:01:17;;;;;;;10.45;4.00;;;24.40;98.80;;;;;;6061171;23;20030;-85
2022/08/02 10:03:58;;;;;;;11.38;3.92;;;24.40;98.70;;;;;;6061806;23;20151;-87
2022/08/02 10:06:27;;;;;;;6.88;3.85;;;24.40;96.20;;;;;;6060806;23;20465;-83
2022/08/02 10:08:54;;;;;;;10.95;4.10;;;24.40;97.50;;;;;;6061466;23;20045;-88
2022/08/02 10:11:22;;;;;;;10.02;3.65;;;24.30;98.10;;;;;;6058784;23;20031;-84
2022/08/02 10:13:49;;;;;;;7.65;3.70;;;24.40;97.80;;;;;;6061551;23;20045;-84
2022/08/02 10:16:18;;;;;;;9.73;3.78;;;24.40;99.40;;;;;;6060351;23;20085;-84
2022/08/02 10:18:45;;;;;;;7.38;4.40;;;24.40;99.10;;;;;;6060920;23;20098;-83
2022/08/02 10:21:15;;;;;;;7.53;3.88;;;24.50;97.30;;;;;;6061373;23;20065;-84
2022/08/02 10:23:45;;;;;;;8.63;4.07;;;24.40;98.50;;;;;;6061338;23;20023;-83
2022/08/02 10:26:17;;;;;;;8.80;4.50;;;24.50;98.00;;;;;;6060382;23;20094;-83
2022/08/02 10:28:46;;;;;;;5.30;3.72;;;24.40;98.20;;;;;;6061124;23;20026;-83
2022/08/02 10:31:15;;;;;;;7.43;3.58;;;24.40;98.50;;;;;;6061226;23;20478;-92
2022/08/02 10:33:44;;;;;;;6.38;3.38;;;24.40;98.90;;;;;;6061425;23;20527;-84
2022/08/02 10:36:12;;;;;;;6.25;3.63;;;24.50;98.90;;;;;;6060234;23;20015;-85
2022/08/02 10:38:39;;;;;;;6.13;3.15;;;24.50;96.70;;;;;;6061271;23;20073;-85
2022/08/02 10:41:07;;;;;;;8.63;3.70;;;24.60;98.80;;;;;;6061078;23;20023;-84
2022/08/02 10:43:47;;;;;;;6.60;3.05;;;24.70;96.50;;;;;;6061106;23;20027;-85
2022/08/02 10:46:21;;;;;;;8.65;3.30;;;24.60;97.20;;;;;;6060722;23;20073;-85
2022/08/02 10:49:07;;;;;;;7.10;3.40;;;24.60;95.10;;;;;;6059893;23;20077;-90
2022/08/02 10:51:56;;;;;;;7.05;3.78;;;24.70;97.80;;;;;;6036577;23;20031;-90
2022/08/02 10:54:25;;;;;;;5.40;3.38;;;24.80;94.60;;;;;;6061233;23;20556;-89
2022/08/02 10:56:55;;;;;;;9.40;3.63;;;24.70;95.60;;;;;;6060276;23;20026;-89
2022/08/02 10:59:27;;;;;;;8.37;3.47;;;24.70;98.00;;;;;;6057514;23;20502;-86
2022/08/02 11:02:01;;;;;;;6.70;3.60;;;24.70;98.50;;;;;;6059035;23;20267;-85
2022/08/02 11:04:31;;;;;;;7.68;3.35;;;24.80;97.80;;;;;;6060952;23;20073;-85
2022/08/02 11:07:09;;;;;;;6.75;3.72;;;24.90;96.10;;;;;;6035299;23;20054;-86
2022/08/02 11:09:37;;;;;;;7.90;3.72;;;24.90;98.00;;;;;;6060364;23;20399;-85
2022/08/02 11:12:08;;;;;;;7.88;4.13;;;24.80;97.40;;;;;;6060759;23;20023;-85
2022/08/02 11:14:37;;;;;;;8.07;3.90;;;24.80;99.10;;;;;;6060648;23;20106;-85
2022/08/02 11:17:08;;;;;;;9.25;3.70;;;24.80;97.60;;;;;;6060282;23;20023;-85
2022/08/02 11:19:37;;;;;;;7.65;3.58;;;24.80;96.40;;;;;;6059321;23;20023;-85
2022/08/02 11:22:06;;;;;;;13.00;3.63;;;24.80;97.00;;;;;;6060528;23;20110;-85
2022/08/02 11:24:34;;;;;;;5.25;3.15;;;24.80;97.10;;;;;;6061251;23;20050;-85
2022/08/02 11:27:02;;;;;;;9.60;2.90;;;24.70;99.00;;;;;;6060294;23;20035;-85
2022/08/02 11:29:36;;;;;;;4.45;3.10;;;24.80;97.50;;;;;;6060299;23;20019;-86
2022/08/02 11:32:04;;;;;;;7.20;3.20;;;24.80;97.60;;;;;;6060271;23;20789;-85
2022/08/02 11:34:32;;;;;;;5.43;2.85;;;24.90;95.60;;;;;;6060901;23;20019;-85
2022/08/02 11:36:59;;;;;;;5.15;2.80;;;24.90;96.90;;;;;;6082629;23;20479;-85
2022/08/02 11:39:26;;;;;;;4.45;2.80;;;25.00;95.20;;;;;;6083383;23;20027;-85
2022/08/02 11:41:55;;;;;;;4.03;2.42;;;25.00;95.90;;;;;;6060849;23;20023;-85
2022/08/02 11:44:23;;;;;;;6.57;2.60;;;24.90;94.00;;;;;;6061276;23;20077;-85
2022/08/02 11:46:59;;;;;;;8.30;2.75;;;25.00;96.60;;;;;;6060495;23;20094;-85
2022/08/02 11:49:26;;;;;;;5.32;2.55;;;25.00;93.30;;;;;;6060395;23;20023;-85
2022/08/02 11:51:54;;;;;;;4.85;2.75;;;25.10;94.70;;;;;;6060564;23;20341;-85
2022/08/02 11:54:26;;;;;;;4.22;2.42;;;25.10;94.70;;;;;;6061028;23;20023;-85
2022/08/02 11:56:53;;;;;;;4.97;2.30;;;25.10;92.90;;;;;;6060358;23;20069;-85
2022/08/02 11:59:20;;;;;;;4.63;2.38;;;25.30;93.60;;;;;;6060630;23;20452;-85
2022/08/02 12:01:47;;;;;;;4.82;2.40;;;25.30;93.50;;;;;;6060669;23;20023;-85
2022/08/02 12:04:20;;;;;;;5.13;2.40;;;25.30;94.80;;;;;;6060898;23;20057;-85
2022/08/02 12:06:58;;;;;;;3.33;2.10;;;25.40;91.70;;;;;;6059645;23;20065;-85
2022/08/02 12:09:27;;;;;;;4.80;2.40;;;25.30;90.90;;;;;;6058363;23;20479;-86
2022/08/02 12:11:55;;;;;;;6.53;2.55;;;25.30;94.70;;;;;;6084189;23;20015;-83
2022/08/02 12:14:22;;;;;;;5.93;2.53;;;25.40;95.20;;;;;;6087200;23;20101;-83
2022/08/02 12:19:36;;;;;;;3.97;2.13;;;25.30;93.70;;;;;;6089599;23;20061;-85
2022/08/02 12:22:12;;;;;;;7.68;2.40;;;25.30;91.90;;;;;;6059688;23;20023;-84
2022/08/02 12:24:41;;;;;;;5.93;2.60;;;25.30;91.50;;;;;;6058722;23;20080;-84
2022/08/02 12:27:08;;;;;;;5.80;2.55;;;25.20;93.30;;;;;;6060632;23;20011;-84
2022/08/02 12:29:37;;;;;;;5.32;2.55;;;25.20;94.70;;;;;;6059383;23;20508;-84
2022/08/02 12:32:05;;;;;;;4.38;2.55;;;25.20;95.70;;;;;;6060689;23;20047;-84
2022/08/02 12:34:35;;;;;;;3.90;2.20;;;25.20;94.10;;;;;;6060718;23;20033;-84
2022/08/02 12:37:04;;;;;;;4.38;2.38;;;25.20;94.80;;;;;;6060352;23;20023;-84
2022/08/02 12:39:39;;;;;;;4.88;2.47;;;25.20;94.70;;;;;;6060680;23;20023;-84
2022/08/02 12:42:07;;;;;;;4.55;2.30;;;25.30;93.90;;;;;;6060279;23;20393;-84
2022/08/02 12:44:36;;;;;;;5.43;2.42;;;25.30;92.30;;;;;;6060159;23;20123;-84
2022/08/02 12:47:05;;;;;;;5.32;2.35;;;25.40;91.60;;;;;;6060420;23;20069;-84
2022/08/02 12:49:32;;;;;;;3.67;2.20;;;25.40;91.80;;;;;;6060454;23;20027;-84
2022/08/02 12:52:01;;;;;;;6.85;2.58;;;25.40;91.70;;;;;;6060161;23;20061;-85
2022/08/02 12:54:31;;;;;;;4.95;2.20;;;25.40;91.30;;;;;;6060772;23;20457;-84
2022/08/02 12:56:58;;;;;;;5.10;2.38;;;25.40;90.70;;;;;;6060126;23;20019;-86
2022/08/02 12:59:36;;;;;;;5.13;2.20;;;25.40;90.00;;;;;;6059222;23;20073;-90
2022/08/02 13:02:04;;;;;;;4.97;2.20;;;25.50;90.30;;;;;;6060304;23;20073;-92
2022/08/02 13:04:31;;;;;;;5.43;2.25;;;25.50;90.90;;;;;;6061371;23;20019;-93
2022/08/02 13:07:00;;;;;;;7.07;2.30;;;25.50;92.00;;;;;;6061217;23;20022;-94
2022/08/02 13:09:27;;;;;;;6.47;2.30;;;25.50;91.00;;;;;;6061247;23;20033;-93
2022/08/02 13:11:54;;;;;;;5.03;2.35;;;25.50;89.80;;;;;;6060633;23;20110;-94
2022/08/02 13:14:21;;;;;;;6.35;2.33;;;25.50;90.00;;;;;;6061342;23;20043;-92
2022/08/02 13:16:48;;;;;;;5.88;2.20;;;25.50;90.40;;;;;;6059225;23;20026;-93
2022/08/02 13:19:15;;;;;;;4.25;2.25;;;25.40;91.50;;;;;;6060229;23;20050;-93
2022/08/02 13:21:44;;;;;;;4.47;2.55;;;25.40;90.80;;;;;;6059671;23;20023;-93
2022/08/02 13:24:14;;;;;;;4.88;2.50;;;25.40;90.90;;;;;;6060592;23;20019;-93
2022/08/02 13:26:42;;;;;;;5.35;2.40;;;25.40;89.10;;;;;;6060619;23;20050;-92
2022/08/02 13:29:09;;;;;;;5.60;2.20;;;25.40;89.60;;;;;;6061913;23;20027;-95
2022/08/02 13:31:37;;;;;;;6.18;2.25;;;25.40;89.90;;;;;;6066180;23;20197;-84
2022/08/02 13:34:05;;;;;;;4.95;2.40;;;25.40;89.70;;;;;;6059526;23;20019;-85
2022/08/02 13:36:32;;;;;;;5.80;2.35;;;25.40;90.90;;;;;;6060171;23;20125;-88
2022/08/02 13:38:59;;;;;;;3.63;2.10;;;25.40;89.00;;;;;;6060307;23;20023;-88
2022/08/02 13:41:28;;;;;;;9.48;2.60;;;25.40;89.60;;;;;;6060131;23;20022;-86
2022/08/02 13:43:55;;;;;;;4.90;2.38;;;25.40;90.00;;;;;;6060951;23;20182;-86
2022/08/02 13:46:22;;;;;;;3.80;2.00;;;25.30;88.70;;;;;;6060401;23;20065;-86